Latest Weather Observations for Winton

IDQ60801

Issued at 7:12 am EST Friday 22 October 2021 (issued every 10 minutes, with the page automatically refreshed every 10 minutes)

About weather observations | Map of weather stations | Latest weather observations for QLD | Other Formats
Station Details ID: 037039 Name: WINTON AIRPORT Lat: -22.36 Lon: 143.08 Height: 192.2 m
Data from the previous 72 hours. | See also: Recent months at Winton
Date/Time
EST
Temp
°C
App
Temp
°C
Dew
Point
°C
Rel
Hum
%
Delta-T
°C
Wind Press
QNH
hPa
Press
MSL
hPa
Rain since
9am
mm
Dir  Spd
km/h
Gust
km/h
Spd
kts
Gust
kts
22/07:00am 28.0 26.5 15.3 46 7.8 NW 17 22 9 12 1010.6 1009.4 0.0
22/06:30am 26.4 24.8 15.1 49 6.9 NW 17 20 9 11 1010.1 1009.0 0.0
22/06:00am 25.7 24.4 14.8 51 6.6 NNW 15 19 8 10 1009.7 1008.6 0.0
22/05:30am 26.0 24.4 15.1 51 6.6 NNW 17 20 9 11 1009.4 1008.3 0.0
22/05:00am 26.9 25.1 15.6 50 7.0 NNW 19 22 10 12 1009.1 1008.0 0.0
22/04:30am 27.0 25.2 15.4 49 7.1 NNW 19 24 10 13 1008.8 1007.7 0.0
22/04:00am 27.2 24.9 15.6 49 7.2 NNW 22 28 12 15 1008.5 1007.4 0.0
22/03:30am 27.3 24.9 15.3 48 7.4 NW 22 28 12 15 1008.8 1007.7 0.0
22/03:00am 27.6 24.9 15.6 48 7.4 NNW 24 30 13 16 1008.5 1007.4 0.0
22/02:30am 27.8 25.1 15.5 47 7.6 NNW 24 33 13 18 1008.6 1007.5 0.0
22/02:00am 27.8 24.9 15.1 46 7.8 NNW 24 33 13 18 1008.5 1007.4 0.0
22/01:30am 27.9 24.5 13.8 42 8.5 N 24 32 13 17 1008.7 1007.6 0.0
22/01:00am 28.4 24.8 11.9 36 9.6 N 22 30 12 16 1009.2 1008.1 0.0
22/12:30am 29.3 24.9 11.8 34 10.2 NNW 26 32 14 17 1009.5 1008.4 0.0
22/12:00am 29.5 23.4 4.9 21 12.9 N 26 35 14 19 1009.7 1008.6 0.0
 
Date/Time
EST
Temp
°C
App
Temp
°C
Dew
Point
°C
Rel
Hum
%
Delta-T
°C
Wind Press
QNH
hPa
Press
MSL
hPa
Rain since
9am
mm
Dir  Spd
km/h
Gust
km/h
Spd
kts
Gust
kts
21/11:53pm 29.9 23.1 -1.5 13 14.7 N 24 32 13 17 1009.8 1008.7 0.0
21/11:30pm 24.9 21.2 -4.4 14 12.5 ENE 6 7 3 4 1009.4 1008.3 0.0
21/11:00pm 25.9 22.0 -4.6 13 13.1 ENE 7 9 4 5 1009.6 1008.5 0.0
21/10:30pm 26.2 22.2 -5.4 12 13.4 ENE 7 7 4 4 1009.7 1008.6 0.0
21/10:00pm 26.4 22.3 -6.4 11 13.7 E 7 9 4 5 1009.7 1008.6 0.0
21/09:30pm 28.1 23.7 -6.3 10 14.6 ESE 9 9 5 5 1009.6 1008.5 0.0
21/09:00pm 27.7 23.3 -5.4 11 14.3 E 9 11 5 6 1009.3 1008.2 0.0
21/08:30pm 28.1 23.7 -6.3 10 14.6 E 9 11 5 6 1008.9 1007.8 0.0
21/08:00pm 31.9 27.8 -6.4 8 16.8 SE 7 7 4 4 1008.5 1007.4 0.0
21/07:30pm 33.8 30.1 -5.0 8 17.7 SSE 6 6 3 3 1008.3 1007.2 0.0
21/07:00pm 33.5 30.1 -5.2 8 17.6 SSE 4 6 2 3 1008.1 1007.0 0.0
21/06:30pm 35.3 31.5 -5.7 7 18.7 S 6 7 3 4 1007.8 1006.6 0.0
21/06:00pm 36.8 32.5 -4.6 7 19.4 S 9 11 5 6 1007.3 1006.1 0.0
21/05:30pm 37.3 34.0 -4.2 7 19.6 S 4 11 2 6 1007.0 1005.8 0.0
21/05:00pm 37.8 33.6 -3.9 7 19.9 S 9 15 5 8 1006.6 1005.4 0.0
21/04:30pm 38.1 34.5 -3.7 7 20.0 S 6 9 3 5 1006.5 1005.3 0.0
21/04:00pm 37.3 33.6 -4.2 7 19.7 S 6 7 3 4 1006.5 1005.3 0.0
21/03:30pm 37.6 33.6 -6.0 6 20.1 SW 7 13 4 7 1006.7 1005.5 0.0
21/03:00pm 38.0 33.2 -5.8 6 20.4 SSW 11 17 6 9 1007.2 1006.0 0.0
21/02:30pm 38.6 34.4 -7.7 5 20.9 WSW 7 19 4 10 1007.6 1006.4 0.0
21/02:00pm 38.6 34.4 -7.7 5 21.0 WNW 7 13 4 7 1008.0 1006.8 0.0
21/01:30pm 37.5 33.2 -8.5 5 20.4 WNW 7 17 4 9 1008.4 1007.3 0.0
21/01:00pm 36.5 32.4 -9.2 5 19.9 SSW 6 15 3 8 1008.9 1007.8 0.0
21/12:30pm 37.3 32.6 -8.6 5 20.3 NW 9 26 5 14 1009.4 1008.3 0.0
21/12:00pm 35.2 31.0 -7.7 6 18.9 NW 7 15 4 8 1010.2 1009.1 0.0
21/11:30am 34.6 30.4 -8.2 6 18.6 NW 7 15 4 8 1010.8 1009.6 0.0
21/11:00am 33.6 28.9 -8.9 6 18.1 NNW 9 17 5 9 1011.2 1010.0 0.0
21/10:30am 32.3 27.3 -7.8 7 17.2 NW 11 19 6 10 1011.6 1010.4 0.0
21/10:00am 30.9 25.8 -8.9 7 16.6 NW 11 22 6 12 1011.6 1010.4 0.0
21/09:30am 30.4 26.2 -7.5 8 16.1 NNW 7 9 4 5 1012.0 1010.8 0.0
21/09:00am 29.0 24.7 -8.5 8 15.5 NNE 7 13 4 7 1011.8 1010.6 0.0
21/08:30am 27.8 23.8 -7.9 9 14.7 N 6 9 3 5 1011.3 1010.1 0.0
21/08:00am 26.4 21.7 -9.0 9 14.1 E 9 13 5 7 1010.4 1009.3 0.0
21/07:30am 23.7 18.6 -9.7 10 12.8 ESE 11 13 6 7 1009.9 1008.8 0.0
21/07:00am 20.4 15.9 -11.0 11 11.3 ESE 7 11 4 6 1009.5 1008.4 0.0
21/06:30am 18.0 13.6 -10.8 13 10.1 E 7 9 4 5 1009.2 1008.1 0.0
21/06:00am 16.6 11.8 -11.0 14 9.5 ESE 9 11 5 6 1008.7 1007.6 0.0
21/05:30am 16.6 11.4 -11.0 14 9.5 E 11 11 6 6 1008.3 1007.2 0.0
21/05:00am 17.6 12.0 -11.1 13 10.0 E 13 15 7 8 1007.9 1006.7 0.0
21/04:30am 16.8 11.7 -9.9 15 9.4 ENE 11 13 6 7 1007.7 1006.5 0.0
21/04:00am 16.8 11.7 -9.9 15 9.4 ENE 11 13 6 7 1007.6 1006.4 0.0
21/03:30am 17.6 12.0 -11.1 13 9.9 ENE 13 19 7 10 1007.6 1006.4 0.0
21/03:00am 18.2 12.3 -10.6 13 10.2 ENE 15 17 8 9 1007.9 1006.7 0.0
21/02:30am 18.6 12.6 -11.3 12 10.4 ENE 15 17 8 9 1008.4 1007.3 0.0
21/02:00am 18.6 12.6 -11.3 12 10.5 ENE 15 15 8 8 1009.0 1007.9 0.0
21/01:30am 18.2 13.4 -10.6 13 10.2 ENE 9 11 5 6 1009.1 1008.0 0.0
21/01:00am 19.1 13.8 -12.0 11 10.8 ENE 11 13 6 7 1009.5 1008.4 0.0
21/12:30am 20.5 15.5 -13.4 9 11.6 ESE 9 9 5 5 1009.8 1008.7 0.0
21/12:00am 21.8 17.3 -12.4 9 12.2 ESE 7 9 4 5 1010.1 1009.0 0.0
 
Date/Time
EST
Temp
°C
App
Temp
°C
Dew
Point
°C
Rel
Hum
%
Delta-T
°C
Wind Press
QNH
hPa
Press
MSL
hPa
Rain since
9am
mm
Dir  Spd
km/h
Gust
km/h
Spd
kts
Gust
kts
20/11:30pm 20.7 16.1 -13.3 9 11.7 E 7 11 4 6 1010.3 1009.2 0.0
20/11:00pm 22.1 16.8 -12.2 9 12.3 ESE 11 13 6 7 1010.2 1009.1 0.0
20/10:30pm 23.3 18.3 -12.8 8 13.0 ESE 9 11 5 6 1010.4 1009.3 0.0
20/10:00pm 23.6 18.8 -11.1 9 12.9 E 9 11 5 6 1010.2 1009.1 0.0
20/09:30pm 25.9 20.2 -12.5 7 14.3 ESE 13 15 7 8 1010.2 1009.1 0.0
20/09:00pm 25.8 20.9 -12.6 7 14.3 E 9 9 5 5 1010.0 1008.9 0.0
20/08:30pm 29.6 25.1 -11.7 6 16.2 S 7 7 4 4 1009.6 1008.5 0.0
20/08:00pm 30.2 26.3 -11.3 6 16.5 SSE 4 6 2 3 1009.4 1008.3 0.0
20/07:30pm 31.4 27.0 -12.7 5 17.3 S 6 7 3 4 1009.1 1008.0 0.0
20/07:00pm 33.0 28.5 -11.6 5 18.1 S 7 9 4 5 1008.7 1007.6 0.0
20/06:30pm 33.4 28.9 -11.3 5 18.3 SSW 7 9 4 5 1008.5 1007.4 0.0
20/06:00pm 36.0 30.7 -12.3 4 19.9 SSW 11 17 6 9 1008.5 1007.4 0.0
20/05:30pm 36.8 32.3 -11.8 4 20.3 SSW 7 17 4 9 1008.1 1007.0 0.0
20/05:00pm 37.0 31.0 -11.6 4 20.5 SW 15 22 8 12 1008.1 1007.0 0.0
20/04:30pm 37.9 32.3 -11.0 4 20.9 WSW 13 20 7 11 1008.0 1006.8 0.0
20/04:00pm 37.1 32.2 -11.6 4 20.5 SSW 9 20 5 11 1008.2 1007.1 0.0
20/03:30pm 38.1 31.8 -10.9 4 21.0 SW 17 32 9 17 1008.5 1007.4 0.0
20/03:00pm 37.4 31.8 -11.4 4 20.7 SSW 13 22 7 12 1008.7 1007.6 0.0
20/02:30pm 37.4 33.3 -8.5 5 20.3 WNW 6 28 3 15 1009.0 1007.9 0.0
20/02:00pm 37.1 30.7 -11.6 4 20.5 SSE 17 28 9 15 1009.4 1008.3 0.0
20/01:30pm 37.1 31.3 -8.7 5 20.1 SW 15 26 8 14 1010.1 1009.0 0.0
20/01:00pm 36.5 31.2 -6.8 6 19.6 SW 13 24 7 13 1010.8 1009.6 0.0
20/12:30pm 36.7 31.5 -6.7 6 19.6 SSW 13 24 7 13 1011.4 1010.2 0.0
20/12:00pm 35.3 31.9 -5.7 7 18.7 WNW 4 11 2 6 1011.9 1010.7 0.0
20/11:30am 35.3 29.4 -5.7 7 18.7 SE 17 32 9 17 1012.5 1011.3 0.0
20/11:00am 35.2 29.9 -4.0 8 18.3 ESE 15 26 8 14 1012.8 1011.7 0.0
20/10:30am 34.0 27.6 -4.9 8 17.8 ESE 20 32 11 17 1013.1 1012.0 0.0
20/10:00am 33.5 26.7 -5.2 8 17.5 ESE 22 33 12 18 1013.5 1012.4 0.0
20/09:30am 33.0 26.2 -5.6 8 17.3 ESE 22 32 12 17 1013.7 1012.6 0.0
20/09:00am 31.9 25.5 -4.9 9 16.5 E 20 28 11 15 1014.0 1012.9 0.0
20/08:30am 29.0 23.2 -4.4 11 14.8 E 17 20 9 11 1014.1 1013.0 0.0
20/08:00am 26.6 20.5 -4.0 13 13.4 ESE 19 24 10 13 1013.9 1012.8 0.0
20/07:30am 24.7 19.4 -3.6 15 12.3 ESE 15 20 8 11 1013.7 1012.6 0.0
20/07:00am 22.9 18.1 -2.6 18 11.1 ESE 13 17 7 9 1013.6 1012.5 0.0
20/06:30am 20.5 15.7 -2.5 21 9.8 ESE 13 15 7 8 1013.2 1012.1 0.0
20/06:00am 17.6 12.8 -2.6 25 8.4 E 13 13 7 7 1012.9 1011.8 0.0
20/05:30am 17.9 13.4 -2.9 24 8.6 ENE 11 13 6 7 1012.6 1011.4 0.0
20/05:00am 18.6 14.2 -2.3 24 8.8 ENE 11 13 6 7 1012.4 1011.2 0.0
20/04:30am 19.0 15.0 -2.6 23 9.1 ENE 9 9 5 5 1012.1 1010.9 0.0
20/04:00am 20.4 16.9 -2.6 21 9.8 ENE 6 7 3 4 1011.9 1010.7 0.0
20/03:30am 20.5 16.9 -1.9 22 9.7 E 7 9 4 5 1011.7 1010.5 0.0
20/03:00am 22.5 18.1 -2.2 19 10.8 ESE 11 15 6 8 1011.6 1010.4 0.0
20/02:30am 23.6 19.0 -1.3 19 11.2 SE 13 17 7 9 1011.8 1010.6 0.0
20/02:00am 22.3 17.6 -1.7 20 10.6 ESE 13 15 7 8 1012.1 1010.9 0.0
20/01:30am 22.9 18.9 -1.9 19 10.9 ESE 9 9 5 5 1012.3 1011.1 0.0
20/01:00am 25.9 21.3 -1.0 17 12.4 SE 13 15 7 8 1012.6 1011.4 0.0
20/12:30am 27.5 22.9 -1.4 15 13.3 SE 13 19 7 10 1012.7 1011.6 0.0
20/12:00am 28.6 23.2 -1.5 14 14.0 SE 17 22 9 12 1012.8 1011.7 0.0
 
Date/Time
EST
Temp
°C
App
Temp
°C
Dew
Point
°C
Rel
Hum
%
Delta-T
°C
Wind Press
QNH
hPa
Press
MSL
hPa
Rain since
9am
mm
Dir  Spd
km/h
Gust
km/h
Spd
kts
Gust
kts
19/11:30pm 29.4 24.1 -0.9 14 14.3 SSE 17 24 9 13 1013.0 1011.9 0.0
19/11:00pm 27.1 23.6 -1.7 15 13.2 SE 7 13 4 7 1013.1 1012.0 0.0
19/10:30pm 27.9 25.0 -1.1 15 13.5 ESE 4 4 2 2 1012.9 1011.8 0.0
19/10:00pm 28.2 24.8 -1.8 14 13.8 SE 6 7 3 4 1012.4 1011.2 0.0
19/09:30pm 28.8 25.3 -1.3 14 14.1 SSE 7 9 4 5 1012.0 1010.8 0.0
19/09:00pm 29.3 25.1 -0.9 14 14.3 SE 11 13 6 7 1011.8 1010.6 0.0
19/08:30pm 29.5 25.3 -0.8 14 14.3 SE 11 15 6 8 1011.3 1010.1 0.0
19/08:00pm 31.3 27.2 -0.4 13 15.3 SSE 11 11 6 6 1010.9 1009.7 0.0
19/07:30pm 32.4 29.2 0.5 13 15.8 SSE 7 11 4 6 1010.6 1009.4 0.0
19/07:00pm 33.5 29.8 0.2 12 16.5 SSE 9 13 5 7 1010.1 1009.0 0.0
19/06:30pm 35.5 31.5 0.6 11 17.6 SSE 11 17 6 9 1009.7 1008.6 0.0
19/06:00pm 36.9 33.3 0.3 10 18.6 SSW 9 22 5 12 1009.5 1008.4 0.0
19/05:30pm 37.3 33.3 0.6 10 18.7 SSW 11 17 6 9 1009.3 1008.2 0.0
19/05:00pm 38.3 33.7 1.3 10 19.2 SSW 15 24 8 13 1009.2 1008.1 0.0
19/04:30pm 39.0 32.8 1.9 10 19.5 SSW 24 35 13 19 1009.2 1008.1 0.0
19/04:00pm 37.8 34.5 2.3 11 18.7 SW 9 22 5 12 1009.3 1008.2 0.0
19/03:30pm 38.6 33.3 1.6 10 19.3 SW 19 28 10 15 1009.7 1008.6 0.0
19/03:00pm 38.7 34.4 3.0 11 19.1 SSW 15 32 8 17 1010.1 1009.0 0.0
19/02:30pm 38.0 32.6 2.5 11 18.7 WSW 20 39 11 21 1010.4 1009.3 0.0
19/02:00pm 37.2 34.8 4.2 13 17.8 SSE 6 15 3 8 1010.9 1009.7 0.0
19/01:30pm 37.8 35.3 4.7 13 18.0 WSW 7 17 4 9 1011.6 1010.4 0.0
19/01:00pm 36.9 34.4 5.0 14 17.4 NNW 7 20 4 11 1012.2 1011.0 0.0
19/12:30pm 36.3 33.0 4.6 14 17.1 NNW 11 19 6 10 1012.6 1011.4 0.0
19/12:00pm 35.5 33.0 4.9 15 16.5 N 7 19 4 10 1013.3 1012.2 0.0
19/11:30am 34.6 30.3 5.1 16 15.9 NE 17 30 9 16 1013.8 1012.7 0.0
19/11:00am 33.8 30.5 6.2 18 15.1 NNE 13 22 7 12 1014.4 1013.3 0.0
19/10:30am 33.7 30.5 8.3 21 14.3 NNE 15 26 8 14 1015.0 1013.9 0.0
19/10:00am 32.0 28.8 7.0 21 13.7 N 13 19 7 10 1015.5 1014.4 0.0
19/09:30am 31.2 28.4 10.0 27 12.1 N 15 20 8 11 1016.0 1014.8 0.0
19/09:00am 29.6 27.3 5.6 22 12.7 E 7 11 4 6 1016.2 1015.0 0.0
19/08:33am 26.8 23.6 3.3 22 11.7 SE 9 13 5 7 1016.4 1015.2 0.0
19/08:30am 26.4 23.2 3.0 22 11.6 SE 9 13 5 7 1016.7 1015.5 0.0
19/08:00am 26.4 22.5 0.9 19 12.1 ESE 11 15 6 8 1016.8 1015.6 0.0
19/07:51am 25.5 20.8 0.9 20 11.7 ESE 15 19 8 10 1015.6 1014.5 0.0
19/07:30am 22.4 18.3 -0.3 22 10.3 SE 11 13 6 7 1015.3 1014.2 0.0

Other formats

Comma delimited format used in spreadsheet applications
http://www.bom.gov.au/fwo/IDQ60801/IDQ60801.94342.axf

JavaScript Object Notation format (JSON) in row-major order
http://www.bom.gov.au/fwo/IDQ60801/IDQ60801.94342.json

Data quality

Most of these data are generated automatically and are frequently updated. Quality checks on data are not normally performed. It is possible for incorrect values to appear. Refer to information at About Latest Weather Observations and please check the disclaimer before using these data.